WetterOnline ( http://www.wetteronline.de )

Wetter aktuell Bad Vilbel

Aktuelles Wetter: Offenbach (119m)

6-stündlich | Neueste Meldungen
Ortszeit Temperatur Wetter
Do, 13.12. 1:00 1.7° C wolkenlos
Mi, 12.12. 19:00 3.6° C leicht bewölkt
Mi, 12.12. 13:00 4.3° C bewölkt
Mi, 12.12. 7:00 3.4° C bedeckt
Mi, 12.12. 1:00 2.9° C bedeckt
Di, 11.12. 19:00 3.1° C bewölkt
Di, 11.12. 13:00 5.9° C bewölkt
Di, 11.12. 7:00 3.6° C Sprühregen
Ortszeit Temperatur Wetter
Do, 13.12. 1:00 1.7° C wolkenlos
Do, 13.12. 0:40 1.9° C wolkenlos
Do, 13.12. 0:30 2.2° C leicht bewölkt
Do, 13.12. 0:20 2.2° C leicht bewölkt
Do, 13.12. 0:10 2.4° C bewölkt
Do, 13.12. 0:00 2.6° C bewölkt
Mi, 12.12. 23:50 2.6° C bewölkt
Mi, 12.12. 23:30 3.1° C bedeckt
Mi, 12.12. 23:00 3.2° C bedeckt
Mi, 12.12. 22:30 3.2° C bedeckt
Mi, 12.12. 22:00 3.4° C bedeckt
Ortszeit Relative Feuchte Sichtweite
Do, 13.12. 1:00 87% 30 km
Mi, 12.12. 19:00 71% 65 km
Mi, 12.12. 13:00 75% 40 km
Mi, 12.12. 7:00 80% 45 km
Mi, 12.12. 1:00 88% 25 km
Di, 11.12. 19:00 84% 35 km
Di, 11.12. 13:00 73% 45 km
Di, 11.12. 7:00 87% 11 km
Ortszeit Relative Feuchte Sichtweite
Do, 13.12. 1:00 87% 30 km
Do, 13.12. 0:40 87% -
Do, 13.12. 0:30 85% 35 km
Do, 13.12. 0:20 85% -
Do, 13.12. 0:10 85% -
Do, 13.12. 0:00 84% 45 km
Mi, 12.12. 23:50 84% -
Mi, 12.12. 23:30 82% 45 km
Mi, 12.12. 23:00 81% 40 km
Mi, 12.12. 22:30 80% 45 km
Mi, 12.12. 22:00 79% 40 km
Ortszeit Niederschlagsmenge Niederschlagsart
Do, 13.12. 1:00 0.0 l/m2 in 6 Std. -
Mi, 12.12. 19:00 0.1 l/m2 in 12 Std. Regen
Mi, 12.12. 13:00 0.0 l/m2 in 6 Std. -
Mi, 12.12. 7:00 0.1 l/m2 in 12 Std. Regen
Mi, 12.12. 1:00 0.1 l/m2 in 6 Std. Regen
Di, 11.12. 19:00 0.1 l/m2 in 12 Std. -
Di, 11.12. 13:00 0.1 l/m2 in 6 Std. Regen
Di, 11.12. 7:00 0.1 l/m2 in 12 Std. Regen
Ortszeit Niederschlagsmenge Niederschlagsart
Do, 13.12. 1:00 0.0 l/m2 in 1 Std. -
Do, 13.12. 0:40 keine Meldung -
Do, 13.12. 0:30 0.0 l/m2 in 1 Std. -
Do, 13.12. 0:20 keine Meldung -
Do, 13.12. 0:10 keine Meldung -
Do, 13.12. 0:00 0.0 l/m2 in 1 Std. -
Mi, 12.12. 23:50 keine Meldung -
Mi, 12.12. 23:30 0.0 l/m2 in 1 Std. -
Mi, 12.12. 23:00 0.0 l/m2 in 1 Std. -
Mi, 12.12. 22:30 0.0 l/m2 in 1 Std. -
Mi, 12.12. 22:00 0.0 l/m2 in 1 Std. -
Ortszeit Stärke Spitze Richtung
km/h Bft. km/h Grad Sektor
Do, 13.12. 1:00 9 2 17 40° NO
Mi, 12.12. 19:00 9 2 22 40° NO
Mi, 12.12. 13:00 7 2 17 350° N
Mi, 12.12. 7:00 4 1 18 10° N
Mi, 12.12. 1:00 7 2 14 240° SW
Di, 11.12. 19:00 7 2 25 250° W
Di, 11.12. 13:00 13 3 28 260° W
Di, 11.12. 7:00 13 3 26 250° W
Ortszeit Stärke Spitze Richtung
km/h Bft. km/h Grad Sektor
Do, 13.12. 1:00 9 2 13 40° NO
Do, 13.12. 0:40 7 2 - 40° NO
Do, 13.12. 0:30 7 2 14 30° NO
Do, 13.12. 0:20 7 2 - 30° NO
Do, 13.12. 0:10 7 2 - 40° NO
Do, 13.12. 0:00 7 2 14 40° NO
Mi, 12.12. 23:50 7 2 - 40° NO
Mi, 12.12. 23:30 7 2 14 50° NO
Mi, 12.12. 23:00 7 2 18 20° N
Mi, 12.12. 22:30 7 2 15 30° NO
Mi, 12.12. 22:00 9 2 15 30° NO
Ortszeit Untergrenze Bedeckung Gattung
total tief tief mittel hoch
Do, 13.12. 1:00 - 0/8 0/8 - - -
Mi, 12.12. 19:00 1170 m 4/8 4/8 - - -
Mi, 12.12. 13:00 720 m 8/8 7/8 - - -
Mi, 12.12. 7:00 600 m 8/8 8/8 - - -
Mi, 12.12. 1:00 750 m 8/8 8/8 - - -
Di, 11.12. 19:00 1800 m 7/8 7/8 - - -
Di, 11.12. 13:00 810 m 7/8 7/8 - - -
Di, 11.12. 7:00 480 m 7/8 7/8 - - -
Ortszeit Bedeckungsgrad in Achtel und Wolkenuntergrenze
Do, 13.12. 1:00 keine Wolken
Do, 13.12. 0:40 keine Wolken
Do, 13.12. 0:30 4(1350m)
Do, 13.12. 0:20 4(1350m)
Do, 13.12. 0:10 7(1350m)
Do, 13.12. 0:00 7(1350m)
Mi, 12.12. 23:50 7(1350m)
Mi, 12.12. 23:30 8(1290m)
Mi, 12.12. 23:00 8(1230m)
Mi, 12.12. 22:30 8(1230m)
Mi, 12.12. 22:00 8(1230m)
Ortszeit Luftdruck NN (hPa) Tendenz (hPa in 3 Std.)
Do, 13.12. 1:00 1023 - 0,7
Mi, 12.12. 19:00 1024 - 0,1
Mi, 12.12. 13:00 1025 - 0,4
Mi, 12.12. 7:00 1025 + 0,3
Mi, 12.12. 1:00 1024 + 0,3
Di, 11.12. 19:00 1024 + 0,7
Di, 11.12. 13:00 1023 - 0,4
Di, 11.12. 7:00 1023 0,0
Ortszeit Luftdruck NN (hPa) Tendenz (hPa in 3 Std.)
Do, 13.12. 1:00 1023 - 0,7
Do, 13.12. 0:40 1023 keine Meldung
Do, 13.12. 0:30 1023 - 0,6
Do, 13.12. 0:20 1023 keine Meldung
Do, 13.12. 0:10 1023 keine Meldung
Do, 13.12. 0:00 1023 - 0,5
Mi, 12.12. 23:50 1023 keine Meldung
Mi, 12.12. 23:30 1023 - 0,5
Mi, 12.12. 23:00 1024 - 0,4
Mi, 12.12. 22:30 1024 - 0,3
Mi, 12.12. 22:00 1024 - 0,2
Ortszeit Schneehöhe (cm)
Do, 13.12. 1:00 0
Mi, 12.12. 19:00 0
Mi, 12.12. 13:00 0
Mi, 12.12. 7:00 0
Mi, 12.12. 1:00 0
Di, 11.12. 19:00 0
Di, 11.12. 13:00 0
Di, 11.12. 7:00 0
Ortszeit Schneehöhe (cm)
Do, 13.12. 1:00 0
Do, 13.12. 0:40 0
Do, 13.12. 0:30 0
Do, 13.12. 0:20 0
Do, 13.12. 0:10 0
Do, 13.12. 0:00 0
Mi, 12.12. 23:50 0
Mi, 12.12. 23:30 0
Mi, 12.12. 23:00 0
Mi, 12.12. 22:30 0
Mi, 12.12. 22:00 0
Link zu dieser Seite / Seite empfehlen

Das Wetter in ...